createdAt,value
2022-11-13T00:00:23.758Z,1
2022-11-13T00:01:23.205Z,1
2022-11-13T00:02:23.980Z,3
2022-11-13T00:03:23.456Z,3
2022-11-13T00:04:23.688Z,3
2022-11-13T00:05:23.266Z,3
2022-11-13T00:06:23.440Z,3
2022-11-13T00:07:23.516Z,3
2022-11-13T00:08:23.394Z,3
2022-11-13T00:09:23.689Z,3
2022-11-13T00:10:23.905Z,3
2022-11-13T00:11:23.662Z,3
2022-11-13T00:12:23.805Z,3
2022-11-13T00:13:27.569Z,3
2022-11-13T00:14:23.798Z,3
2022-11-13T00:15:23.123Z,3
2022-11-13T00:16:23.533Z,3
2022-11-13T00:17:23.797Z,3
2022-11-13T00:18:22.517Z,3
2022-11-13T00:20:23.845Z,3
2022-11-13T00:21:23.863Z,3
2022-11-13T00:22:23.902Z,3
2022-11-13T00:23:23.355Z,3
2022-11-13T00:24:23.341Z,3
2022-11-13T00:25:23.208Z,3
2022-11-13T00:26:23.781Z,3
2022-11-13T00:28:23.459Z,3
2022-11-13T00:31:23.601Z,3
2022-11-13T00:32:23.953Z,1
2022-11-13T00:34:48.614Z,1
2022-11-13T00:34:59.063Z,1
2022-11-13T00:46:23.869Z,1
2022-11-13T00:53:30.359Z,5
2022-11-13T01:03:23.557Z,3
2022-11-13T01:09:23.910Z,3
2022-11-13T01:20:23.816Z,4
2022-11-13T01:21:23.115Z,4
2022-11-13T01:33:23.414Z,3
2022-11-13T01:38:24.017Z,3
2022-11-13T01:39:23.488Z,3
2022-11-13T01:41:30.342Z,3
2022-11-13T01:47:23.510Z,3
2022-11-13T01:48:24.391Z,3
2022-11-13T01:49:23.350Z,3
2022-11-13T01:51:23.137Z,3
2022-11-13T01:52:23.595Z,3
2022-11-13T01:54:23.261Z,3
2022-11-13T01:55:23.735Z,3
2022-11-13T01:56:24.009Z,3
2022-11-13T01:57:23.514Z,3
2022-11-13T02:00:23.108Z,3
2022-11-13T02:01:23.400Z,3
2022-11-13T02:02:23.435Z,3
2022-11-13T02:03:22.895Z,3
2022-11-13T02:05:23.358Z,3
2022-11-13T02:07:23.574Z,3
2022-11-13T02:09:23.146Z,3
2022-11-13T02:10:23.603Z,3
2022-11-13T02:12:23.179Z,3
2022-11-13T02:13:23.550Z,3
2022-11-13T02:16:23.470Z,3
2022-11-13T02:17:23.545Z,4
2022-11-13T02:19:23.409Z,4
2022-11-13T02:21:23.095Z,4
2022-11-13T02:23:22.963Z,4
2022-11-13T02:25:23.192Z,4
2022-11-13T02:27:23.454Z,4
2022-11-13T02:29:22.806Z,4
2022-11-13T02:30:35.528Z,4
2022-11-13T02:31:22.395Z,4
2022-11-13T02:32:23.681Z,3
2022-11-13T02:35:23.372Z,3
2022-11-13T02:37:23.399Z,3
2022-11-13T02:38:23.528Z,3
2022-11-13T02:39:23.270Z,3
2022-11-13T02:40:23.101Z,3
2022-11-13T02:42:23.277Z,3
2022-11-13T02:43:23.806Z,3
2022-11-13T02:44:23.090Z,3
2022-11-13T02:45:23.575Z,3
2022-11-13T02:46:23.287Z,3
2022-11-13T02:49:23.340Z,1
2022-11-13T02:53:23.448Z,1
2022-11-13T02:54:29.062Z,1
2022-11-13T02:55:23.161Z,1
2022-11-13T02:59:23.604Z,1
2022-11-13T03:01:23.037Z,1
2022-11-13T03:02:23.606Z,0
2022-11-13T03:04:03.444Z,0
2022-11-13T03:04:23.299Z,0
2022-11-13T03:09:23.059Z,0
2022-11-13T03:11:23.328Z,0
2022-11-13T03:13:23.215Z,0
2022-11-13T03:14:23.353Z,0
2022-11-13T03:17:23.294Z,4
2022-11-13T03:18:23.505Z,4
2022-11-13T03:20:23.338Z,4
2022-11-13T03:21:23.100Z,4
2022-11-13T03:22:22.232Z,4
2022-11-13T03:29:23.430Z,4
2022-11-13T03:31:22.537Z,4
2022-11-13T03:33:23.293Z,1
2022-11-13T03:36:23.179Z,1
2022-11-13T03:37:23.614Z,1
2022-11-13T03:38:23.129Z,1
2022-11-13T03:39:23.509Z,1
2022-11-13T03:42:23.367Z,1
2022-11-13T03:43:23.641Z,1
2022-11-13T03:44:23.285Z,1
2022-11-13T03:46:23.602Z,1
2022-11-13T03:47:22.907Z,1
2022-11-13T03:48:23.114Z,1
2022-11-13T03:49:23.346Z,1
2022-11-13T03:50:23.196Z,1
2022-11-13T03:52:23.150Z,1
2022-11-13T03:54:23.164Z,1
2022-11-13T03:55:26.080Z,1
2022-11-13T03:58:23.484Z,1
2022-11-13T03:59:23.496Z,1
2022-11-13T04:02:23.465Z,3
2022-11-13T04:03:23.507Z,3
2022-11-13T04:05:30.810Z,3
2022-11-13T04:07:23.678Z,3
2022-11-13T04:08:23.481Z,3
2022-11-13T04:12:23.348Z,3
2022-11-13T04:13:23.560Z,3
2022-11-13T04:15:23.006Z,3
2022-11-13T04:16:23.194Z,3
2022-11-13T04:17:22.388Z,3
2022-11-13T04:18:23.274Z,3
2022-11-13T04:19:23.556Z,3
2022-11-13T04:21:23.284Z,3
2022-11-13T04:22:23.283Z,3
2022-11-13T04:23:23.306Z,3
2022-11-13T04:24:23.524Z,3
2022-11-13T04:26:23.341Z,3
2022-11-13T04:29:23.454Z,3
2022-11-13T04:30:23.720Z,3
2022-11-13T04:31:23.607Z,3
2022-11-13T04:33:23.333Z,3
2022-11-13T04:36:23.469Z,3
2022-11-13T04:38:23.189Z,3
2022-11-13T04:39:23.646Z,3
2022-11-13T04:40:22.486Z,3
2022-11-13T04:41:23.225Z,3
2022-11-13T04:42:23.513Z,3
2022-11-13T04:48:23.373Z,3
2022-11-13T04:50:23.568Z,3
2022-11-13T04:53:23.118Z,3
2022-11-13T04:56:23.088Z,3
2022-11-13T04:57:23.406Z,3
2022-11-13T05:00:23.401Z,3
2022-11-13T05:02:23.082Z,3
2022-11-13T05:03:23.520Z,3
2022-11-13T05:04:23.305Z,3
2022-11-13T05:05:22.456Z,3
2022-11-13T05:06:23.433Z,3
2022-11-13T05:08:22.362Z,3
2022-11-13T05:09:23.372Z,3
2022-11-13T05:10:23.635Z,3
2022-11-13T05:14:23.356Z,3
2022-11-13T05:15:23.872Z,3
2022-11-13T05:16:23.442Z,3
2022-11-13T05:19:24.029Z,3
2022-11-13T05:21:23.274Z,3
2022-11-13T05:24:23.194Z,3
2022-11-13T05:25:23.503Z,3
2022-11-13T05:29:23.057Z,3
2022-11-13T05:30:23.345Z,3
2022-11-13T05:33:22.252Z,1
2022-11-13T05:35:23.440Z,1
2022-11-13T05:36:23.256Z,1
2022-11-13T05:39:23.400Z,1
2022-11-13T05:42:23.279Z,1
2022-11-13T05:43:23.596Z,1
2022-11-13T05:44:23.573Z,1
2022-11-13T05:46:23.608Z,1
2022-11-13T05:48:23.248Z,0
2022-11-13T05:50:23.141Z,0
2022-11-13T05:51:23.544Z,0
2022-11-13T05:53:23.983Z,0
2022-11-13T05:54:23.559Z,0
2022-11-13T05:56:22.770Z,0
2022-11-13T05:57:22.807Z,0
2022-11-13T05:58:22.659Z,0
2022-11-13T05:59:23.318Z,0
2022-11-13T06:00:22.430Z,0
2022-11-13T06:01:23.135Z,0
2022-11-13T06:03:23.499Z,3
2022-11-13T06:06:23.535Z,3
2022-11-13T06:07:24.284Z,3
2022-11-13T06:08:23.343Z,3
2022-11-13T06:10:23.384Z,3
2022-11-13T06:12:23.375Z,3
2022-11-13T06:14:24.078Z,3
2022-11-13T06:15:23.126Z,3
2022-11-13T06:17:23.354Z,3
2022-11-13T06:19:23.428Z,3
2022-11-13T06:21:23.421Z,3
2022-11-13T06:23:22.211Z,3
2022-11-13T06:24:22.670Z,3
2022-11-13T06:27:23.576Z,3
2022-11-13T06:28:23.301Z,3
2022-11-13T06:29:23.399Z,3
2022-11-13T06:31:23.531Z,3
2022-11-13T06:33:23.452Z,3
2022-11-13T06:37:23.262Z,3
2022-11-13T06:38:23.604Z,3
2022-11-13T06:41:23.207Z,3
2022-11-13T06:44:23.270Z,3
2022-11-13T06:45:23.218Z,3
2022-11-13T06:46:23.669Z,3
2022-11-13T06:47:22.393Z,3
2022-11-13T06:48:23.459Z,3
2022-11-13T06:49:23.805Z,3
2022-11-13T06:53:23.235Z,3
2022-11-13T06:56:22.621Z,3
2022-11-13T06:57:23.190Z,3
2022-11-13T07:00:23.513Z,3
2022-11-13T07:02:23.694Z,1
2022-11-13T07:04:22.445Z,1
2022-11-13T07:09:24.010Z,1
2022-11-13T07:10:23.505Z,1
2022-11-13T07:12:22.864Z,1
2022-11-13T07:13:22.668Z,1
2022-11-13T07:15:24.281Z,1
2022-11-13T07:17:10.488Z,1
2022-11-13T07:17:23.453Z,4
2022-11-13T07:21:24.181Z,4
2022-11-13T07:22:23.319Z,4
2022-11-13T07:25:23.820Z,4
2022-11-13T07:26:23.182Z,4
2022-11-13T07:27:23.548Z,4
2022-11-13T07:28:23.532Z,4
2022-11-13T07:30:23.616Z,4
2022-11-13T07:32:23.286Z,5
2022-11-13T07:33:23.582Z,5
2022-11-13T07:35:23.330Z,5
2022-11-13T07:36:22.664Z,5
2022-11-13T07:37:22.641Z,5
2022-11-13T07:39:23.463Z,5
2022-11-13T07:43:23.328Z,5
2022-11-13T07:45:13.811Z,5
2022-11-13T07:51:23.346Z,4
2022-11-13T07:56:30.174Z,4
2022-11-13T08:02:30.503Z,4
2022-11-13T08:05:24.061Z,4
2022-11-13T08:21:27.760Z,4
2022-11-13T08:35:35.913Z,6
2022-11-13T08:46:24.110Z,6
2022-11-13T08:47:29.399Z,4
2022-11-13T08:59:23.722Z,4
2022-11-13T09:07:31.640Z,8
2022-11-13T09:10:24.238Z,8
2022-11-13T09:15:28.867Z,8
2022-11-13T09:20:31.981Z,3
2022-11-13T09:34:23.510Z,8
2022-11-13T09:37:23.978Z,8
2022-11-13T09:41:23.983Z,8
2022-11-13T09:57:30.242Z,5
2022-11-13T10:04:16.658Z,4
2022-11-13T10:09:24.095Z,4
2022-11-13T10:18:23.342Z,5
2022-11-13T10:19:23.868Z,5
2022-11-13T10:22:45.233Z,5
2022-11-13T10:24:26.830Z,5
2022-11-13T10:29:03.589Z,5
2022-11-13T10:46:23.721Z,8
2022-11-13T10:48:05.869Z,6
2022-11-13T10:57:22.658Z,6
2022-11-13T10:58:23.445Z,6
2022-11-13T11:07:33.868Z,13
2022-11-13T11:12:31.046Z,13
2022-11-13T11:21:23.657Z,8
2022-11-13T11:33:23.917Z,3
2022-11-13T11:41:29.046Z,3
2022-11-13T11:46:23.297Z,3
2022-11-13T11:47:22.738Z,12
2022-11-13T12:02:23.983Z,5
2022-11-13T12:03:23.902Z,5
2022-11-13T12:05:31.235Z,5
2022-11-13T12:16:29.688Z,5
2022-11-13T12:42:24.215Z,8
2022-11-13T12:43:23.743Z,8
2022-11-13T12:47:23.720Z,9
2022-11-13T12:48:24.028Z,9
2022-11-13T12:57:29.893Z,9
2022-11-13T12:59:43.256Z,9
2022-11-13T13:00:24.170Z,9
2022-11-13T13:01:24.370Z,9
2022-11-13T13:02:24.123Z,6
2022-11-13T13:03:23.491Z,6
2022-11-13T13:04:23.730Z,6
2022-11-13T13:05:22.613Z,6
2022-11-13T13:06:23.729Z,6
2022-11-13T13:07:24.259Z,6
2022-11-13T13:08:23.368Z,6
2022-11-13T13:09:23.452Z,6
2022-11-13T13:10:22.817Z,6
2022-11-13T13:11:23.770Z,6
2022-11-13T13:12:24.128Z,6
2022-11-13T13:14:23.654Z,6
2022-11-13T13:15:24.101Z,6
2022-11-13T13:16:23.924Z,6
2022-11-13T13:17:23.532Z,6
2022-11-13T13:18:23.935Z,6
2022-11-13T13:19:23.277Z,6
2022-11-13T13:20:23.580Z,6
2022-11-13T13:21:23.453Z,6
2022-11-13T13:22:23.803Z,6
2022-11-13T13:23:24.180Z,6
2022-11-13T13:24:23.492Z,6
2022-11-13T13:26:24.027Z,6
2022-11-13T13:27:23.368Z,6
2022-11-13T13:28:23.356Z,6
2022-11-13T13:29:23.899Z,6
2022-11-13T13:30:23.704Z,6
2022-11-13T13:31:23.301Z,6
2022-11-13T13:32:31.176Z,4
2022-11-13T13:33:24.166Z,4
2022-11-13T13:34:23.956Z,4
2022-11-13T13:35:23.957Z,4
2022-11-13T13:36:24.114Z,4
2022-11-13T13:37:23.640Z,4
2022-11-13T13:38:23.331Z,4
2022-11-13T13:39:23.396Z,4
2022-11-13T13:40:24.145Z,4
2022-11-13T13:41:23.589Z,4
2022-11-13T13:42:23.861Z,4
2022-11-13T13:43:24.224Z,4
2022-11-13T13:44:23.434Z,4
2022-11-13T13:46:23.791Z,4
2022-11-13T13:47:24.434Z,6
2022-11-13T13:48:23.585Z,6
2022-11-13T13:49:23.840Z,6
2022-11-13T13:50:23.315Z,6
2022-11-13T13:51:23.600Z,6
2022-11-13T13:52:24.020Z,6
2022-11-13T13:53:23.321Z,6
2022-11-13T13:54:23.200Z,6
2022-11-13T13:55:23.290Z,6
2022-11-13T13:56:23.058Z,6
2022-11-13T13:57:22.639Z,6
2022-11-13T13:58:23.873Z,6
2022-11-13T13:59:24.061Z,6
2022-11-13T14:00:23.644Z,6
2022-11-13T14:02:23.815Z,4
2022-11-13T14:03:24.305Z,4
2022-11-13T14:04:23.453Z,4
2022-11-13T14:05:23.487Z,4
2022-11-13T14:06:24.082Z,4
2022-11-13T14:07:24.334Z,4
2022-11-13T14:08:23.613Z,4
2022-11-13T14:09:24.626Z,4
2022-11-13T14:10:23.436Z,4
2022-11-13T14:11:23.879Z,4
2022-11-13T14:12:23.400Z,4
2022-11-13T14:13:24.053Z,4
2022-11-13T14:14:23.969Z,4
2022-11-13T14:15:24.329Z,4
2022-11-13T14:16:24.127Z,4
2022-11-13T14:17:24.085Z,4
2022-11-13T14:18:23.823Z,4
2022-11-13T14:19:24.664Z,4
2022-11-13T14:20:23.496Z,4
2022-11-13T14:21:23.868Z,4
2022-11-13T14:23:24.033Z,4
2022-11-13T14:24:23.426Z,4
2022-11-13T14:25:23.918Z,4
2022-11-13T14:26:23.817Z,4
2022-11-13T14:27:23.709Z,4
2022-11-13T14:28:24.053Z,4
2022-11-13T14:29:23.936Z,4
2022-11-13T14:30:24.013Z,4
2022-11-13T14:31:23.291Z,4
2022-11-13T14:32:23.844Z,8
2022-11-13T14:33:24.144Z,8
2022-11-13T14:34:23.259Z,8
2022-11-13T14:35:23.879Z,8
2022-11-13T14:36:24.137Z,8
2022-11-13T14:37:23.387Z,8
2022-11-13T14:38:23.639Z,8
2022-11-13T14:39:23.995Z,8
2022-11-13T14:40:23.442Z,8
2022-11-13T14:41:23.762Z,8
2022-11-13T14:42:24.070Z,8
2022-11-13T14:43:23.515Z,8
2022-11-13T14:44:26.786Z,8
2022-11-13T14:45:23.644Z,8
2022-11-13T14:46:23.412Z,8
2022-11-13T14:47:23.976Z,9
2022-11-13T14:48:23.481Z,9
2022-11-13T14:49:23.973Z,9
2022-11-13T14:50:24.082Z,9
2022-11-13T14:51:24.304Z,9
2022-11-13T14:52:23.939Z,9
2022-11-13T14:53:24.033Z,9
2022-11-13T14:54:23.329Z,9
2022-11-13T14:55:28.469Z,9
2022-11-13T14:56:23.780Z,9
2022-11-13T14:57:23.907Z,9
2022-11-13T14:58:23.911Z,9
2022-11-13T15:00:23.960Z,9
2022-11-13T15:01:24.299Z,9
2022-11-13T15:02:23.969Z,5
2022-11-13T15:03:23.686Z,5
2022-11-13T15:04:24.428Z,5
2022-11-13T15:05:24.401Z,5
2022-11-13T15:06:23.911Z,5
2022-11-13T15:07:24.729Z,5
2022-11-13T15:08:23.841Z,5
2022-11-13T15:09:24.482Z,5
2022-11-13T15:10:23.834Z,5
2022-11-13T15:11:23.696Z,5
2022-11-13T15:12:23.159Z,5
2022-11-13T15:13:23.355Z,5
2022-11-13T15:14:23.968Z,5
2022-11-13T15:15:24.077Z,5
2022-11-13T15:16:23.496Z,5
2022-11-13T15:17:23.958Z,6
2022-11-13T15:18:24.375Z,6
2022-11-13T15:19:23.531Z,6
2022-11-13T15:20:23.805Z,6
2022-11-13T15:21:24.517Z,6
2022-11-13T15:22:41.055Z,6
2022-11-13T15:23:23.900Z,6
2022-11-13T15:24:23.913Z,6
2022-11-13T15:25:23.320Z,6
2022-11-13T15:26:23.231Z,6
2022-11-13T15:27:23.753Z,6
2022-11-13T15:28:23.885Z,6
2022-11-13T15:29:24.518Z,6
2022-11-13T15:30:23.897Z,6
2022-11-13T15:31:23.778Z,6
2022-11-13T15:32:23.879Z,4
2022-11-13T15:33:24.134Z,4
2022-11-13T15:34:23.291Z,4
2022-11-13T15:35:22.855Z,4
2022-11-13T15:36:23.996Z,4
2022-11-13T15:37:24.242Z,4
2022-11-13T15:38:24.473Z,4
2022-11-13T15:39:34.056Z,4
2022-11-13T15:40:23.822Z,4
2022-11-13T15:41:24.193Z,4
2022-11-13T15:42:23.905Z,4
2022-11-13T15:43:23.794Z,4
2022-11-13T15:44:23.818Z,4
2022-11-13T15:45:24.539Z,4
2022-11-13T15:46:23.796Z,4
2022-11-13T15:47:24.241Z,5
2022-11-13T15:48:23.760Z,5
2022-11-13T15:51:24.183Z,5
2022-11-13T15:52:24.016Z,5
2022-11-13T15:53:23.393Z,5
2022-11-13T15:54:23.861Z,5
2022-11-13T15:55:24.186Z,5
2022-11-13T15:56:23.706Z,5
2022-11-13T15:57:23.613Z,5
2022-11-13T15:58:23.973Z,5
2022-11-13T15:59:23.319Z,5
2022-11-13T16:00:23.770Z,5
2022-11-13T16:01:23.256Z,5
2022-11-13T16:02:23.916Z,5
2022-11-13T16:03:23.673Z,5
2022-11-13T16:04:26.654Z,5
2022-11-13T16:05:23.538Z,5
2022-11-13T16:06:23.746Z,5
2022-11-13T16:07:24.419Z,5
2022-11-13T16:08:23.437Z,5
2022-11-13T16:09:23.496Z,5
2022-11-13T16:10:24.220Z,5
2022-11-13T16:11:23.997Z,5
2022-11-13T16:12:23.750Z,5
2022-11-13T16:13:23.773Z,5
2022-11-13T16:14:29.295Z,5
2022-11-13T16:15:23.668Z,5
2022-11-13T16:16:23.661Z,5
2022-11-13T16:17:24.336Z,4
2022-11-13T16:18:23.512Z,4
2022-11-13T16:19:24.036Z,4
2022-11-13T16:20:23.895Z,4
2022-11-13T16:21:24.502Z,4
2022-11-13T16:22:23.564Z,4
2022-11-13T16:23:24.059Z,4
2022-11-13T16:24:28.203Z,4
2022-11-13T16:25:24.282Z,4
2022-11-13T16:26:24.118Z,4
2022-11-13T16:27:23.780Z,4
2022-11-13T16:28:23.996Z,4
2022-11-13T16:30:23.458Z,4
2022-11-13T16:31:23.798Z,4
2022-11-13T16:32:24.067Z,4
2022-11-13T16:33:24.276Z,4
2022-11-13T16:34:23.527Z,4
2022-11-13T16:35:24.368Z,4
2022-11-13T16:37:24.141Z,4
2022-11-13T16:39:23.314Z,4
2022-11-13T16:40:23.754Z,4
2022-11-13T16:41:24.072Z,4
2022-11-13T16:42:27.158Z,4
2022-11-13T16:43:24.012Z,4
2022-11-13T16:44:24.109Z,4
2022-11-13T16:45:24.476Z,4
2022-11-13T16:46:24.173Z,4
2022-11-13T16:47:23.716Z,6
2022-11-13T16:48:24.040Z,6
2022-11-13T16:49:23.411Z,6
2022-11-13T16:50:24.313Z,6
2022-11-13T16:51:24.153Z,6
2022-11-13T16:52:23.342Z,6
2022-11-13T16:53:23.540Z,6
2022-11-13T16:54:23.142Z,6
2022-11-13T16:55:23.636Z,6
2022-11-13T16:56:24.641Z,6
2022-11-13T16:57:24.130Z,6
2022-11-13T16:58:24.483Z,6
2022-11-13T16:59:23.249Z,6
2022-11-13T17:00:23.664Z,6
2022-11-13T17:02:24.419Z,7
2022-11-13T17:03:23.553Z,7
2022-11-13T17:04:23.889Z,7
2022-11-13T17:05:24.264Z,7
2022-11-13T17:06:23.570Z,7
2022-11-13T17:07:24.210Z,7
2022-11-13T17:08:24.091Z,7
2022-11-13T17:09:24.285Z,7
2022-11-13T17:10:43.992Z,7
2022-11-13T17:11:23.432Z,7
2022-11-13T17:13:24.032Z,7
2022-11-13T17:14:23.571Z,7
2022-11-13T17:15:22.983Z,7
2022-11-13T17:16:24.111Z,7
2022-11-13T17:17:23.353Z,5
2022-11-13T17:18:23.015Z,5
2022-11-13T17:20:23.947Z,5
2022-11-13T17:21:24.081Z,5
2022-11-13T17:22:24.252Z,5
2022-11-13T17:23:23.751Z,5
2022-11-13T17:24:24.110Z,5
2022-11-13T17:25:23.951Z,5
2022-11-13T17:26:24.146Z,5
2022-11-13T17:27:24.008Z,5
2022-11-13T17:28:24.172Z,5
2022-11-13T17:29:24.196Z,5
2022-11-13T17:30:23.604Z,5
2022-11-13T17:31:23.467Z,5
2022-11-13T17:32:23.940Z,4
2022-11-13T17:33:23.953Z,4
2022-11-13T17:34:24.213Z,4
2022-11-13T17:35:24.324Z,4
2022-11-13T17:36:24.115Z,4
2022-11-13T17:38:24.234Z,4
2022-11-13T17:39:23.828Z,4
2022-11-13T17:40:23.825Z,4
2022-11-13T17:41:24.344Z,4
2022-11-13T17:42:23.521Z,4
2022-11-13T17:43:24.155Z,4
2022-11-13T17:44:24.142Z,4
2022-11-13T17:45:23.050Z,4
2022-11-13T17:46:24.452Z,4
2022-11-13T17:47:24.042Z,6
2022-11-13T17:48:23.357Z,6
2022-11-13T17:49:24.268Z,6
2022-11-13T17:50:23.580Z,6
2022-11-13T17:51:23.418Z,6
2022-11-13T17:52:23.636Z,6
2022-11-13T17:53:24.008Z,6
2022-11-13T17:54:24.196Z,6
2022-11-13T17:55:23.910Z,6
2022-11-13T17:56:24.155Z,6
2022-11-13T17:58:23.484Z,6
2022-11-13T17:59:24.024Z,6
2022-11-13T18:00:24.243Z,6
2022-11-13T18:01:23.998Z,6
2022-11-13T18:02:24.264Z,7
2022-11-13T18:03:24.006Z,7
2022-11-13T18:04:23.283Z,7
2022-11-13T18:05:23.610Z,7
2022-11-13T18:07:23.765Z,7
2022-11-13T18:08:24.053Z,7
2022-11-13T18:09:22.944Z,7
2022-11-13T18:10:23.099Z,7
2022-11-13T18:11:23.156Z,7
2022-11-13T18:12:24.123Z,7
2022-11-13T18:13:23.227Z,7
2022-11-13T18:14:24.256Z,7
2022-11-13T18:15:24.064Z,7
2022-11-13T18:16:23.501Z,7
2022-11-13T18:17:23.889Z,3
2022-11-13T18:18:24.474Z,3
2022-11-13T18:19:23.536Z,3
2022-11-13T18:20:24.085Z,3
2022-11-13T18:21:35.334Z,3
2022-11-13T18:22:24.145Z,3
2022-11-13T18:23:24.184Z,3
2022-11-13T18:24:24.195Z,3
2022-11-13T18:25:24.068Z,3
2022-11-13T18:26:24.190Z,3
2022-11-13T18:27:23.718Z,3
2022-11-13T18:28:23.845Z,3
2022-11-13T18:29:23.818Z,3
2022-11-13T18:30:24.094Z,3
2022-11-13T18:31:23.784Z,3
2022-11-13T18:32:24.264Z,3
2022-11-13T18:33:23.461Z,3
2022-11-13T18:34:24.293Z,3
2022-11-13T18:36:23.349Z,3
2022-11-13T18:37:23.542Z,3
2022-11-13T18:38:23.556Z,3
2022-11-13T18:40:23.414Z,3
2022-11-13T18:41:23.492Z,3
2022-11-13T18:42:23.719Z,3
2022-11-13T18:43:24.498Z,3
2022-11-13T18:44:23.593Z,3
2022-11-13T18:45:23.452Z,3
2022-11-13T18:46:23.621Z,3
2022-11-13T18:47:23.305Z,3
2022-11-13T18:48:23.894Z,3
2022-11-13T18:49:24.171Z,3
2022-11-13T18:50:23.544Z,3
2022-11-13T18:51:23.657Z,3
2022-11-13T18:52:24.045Z,3
2022-11-13T18:53:23.408Z,3
2022-11-13T18:54:23.684Z,3
2022-11-13T18:55:24.056Z,3
2022-11-13T18:56:23.402Z,3
2022-11-13T18:57:23.726Z,3
2022-11-13T18:58:23.293Z,3
2022-11-13T18:59:23.694Z,3
2022-11-13T19:00:23.796Z,3
2022-11-13T19:02:24.658Z,3
2022-11-13T19:03:23.718Z,3
2022-11-13T19:04:39.176Z,3
2022-11-13T19:05:23.691Z,3
2022-11-13T19:06:23.693Z,3
2022-11-13T19:07:24.237Z,3
2022-11-13T19:08:23.832Z,3
2022-11-13T19:09:23.643Z,3
2022-11-13T19:10:24.057Z,3
2022-11-13T19:11:23.691Z,3
2022-11-13T19:12:24.004Z,3
2022-11-13T19:13:23.580Z,3
2022-11-13T19:14:23.773Z,3
2022-11-13T19:15:24.477Z,3
2022-11-13T19:16:23.370Z,3
2022-11-13T19:17:23.718Z,3
2022-11-13T19:18:23.973Z,3
2022-11-13T19:19:23.314Z,3
2022-11-13T19:20:23.809Z,3
2022-11-13T19:21:24.009Z,3
2022-11-13T19:22:23.581Z,3
2022-11-13T19:25:23.666Z,3
2022-11-13T19:27:23.887Z,3
2022-11-13T19:28:24.164Z,3
2022-11-13T19:29:23.648Z,3
2022-11-13T19:30:24.378Z,3
2022-11-13T19:31:23.627Z,3
2022-11-13T19:32:23.621Z,5
2022-11-13T19:33:23.404Z,5
2022-11-13T19:34:24.221Z,5
2022-11-13T19:35:24.292Z,5
2022-11-13T19:36:23.687Z,5
2022-11-13T19:37:30.355Z,5
2022-11-13T19:38:24.090Z,5
2022-11-13T19:39:23.403Z,5
2022-11-13T19:40:23.917Z,5
2022-11-13T19:41:24.128Z,5
2022-11-13T19:42:23.630Z,5
2022-11-13T19:43:23.856Z,5
2022-11-13T19:44:24.216Z,5
2022-11-13T19:45:23.696Z,5
2022-11-13T19:46:23.468Z,5
2022-11-13T19:47:23.660Z,5
2022-11-13T19:49:24.135Z,5
2022-11-13T19:50:24.205Z,5
2022-11-13T19:52:23.592Z,5
2022-11-13T19:53:23.656Z,5
2022-11-13T19:54:23.464Z,5
2022-11-13T19:55:24.230Z,5
2022-11-13T19:56:24.000Z,5
2022-11-13T19:57:24.199Z,5
2022-11-13T19:58:24.228Z,5
2022-11-13T19:59:23.485Z,5
2022-11-13T20:00:24.181Z,5
2022-11-13T20:01:24.229Z,5
2022-11-13T20:02:23.142Z,4
2022-11-13T20:03:24.432Z,4
2022-11-13T20:04:24.189Z,4
2022-11-13T20:05:23.399Z,4
2022-11-13T20:06:23.940Z,4
2022-11-13T20:07:24.757Z,4
2022-11-13T20:09:24.178Z,4
2022-11-13T20:10:24.353Z,4
2022-11-13T20:11:23.307Z,4
2022-11-13T20:12:23.421Z,4
2022-11-13T20:13:23.381Z,4
2022-11-13T20:14:23.580Z,4
2022-11-13T20:15:23.967Z,4
2022-11-13T20:16:23.760Z,4
2022-11-13T20:17:23.921Z,5
2022-11-13T20:18:24.369Z,5
2022-11-13T20:19:23.858Z,5
2022-11-13T20:20:24.203Z,5
2022-11-13T20:21:23.910Z,5
2022-11-13T20:22:23.937Z,5
2022-11-13T20:23:23.950Z,5
2022-11-13T20:24:24.127Z,5
2022-11-13T20:25:24.634Z,5
2022-11-13T20:26:23.380Z,5
2022-11-13T20:27:23.939Z,5
2022-11-13T20:28:23.394Z,5
2022-11-13T20:29:23.650Z,5
2022-11-13T20:30:24.095Z,5
2022-11-13T20:31:24.005Z,5
2022-11-13T20:32:23.435Z,5
2022-11-13T20:34:23.482Z,5
2022-11-13T20:35:24.018Z,5
2022-11-13T20:36:24.373Z,5
2022-11-13T20:37:23.747Z,5
2022-11-13T20:38:23.878Z,5
2022-11-13T20:39:23.694Z,5
2022-11-13T20:41:24.445Z,5
2022-11-13T20:42:23.813Z,5
2022-11-13T20:43:24.219Z,5
2022-11-13T20:44:24.192Z,5
2022-11-13T20:45:23.571Z,5
2022-11-13T20:46:23.981Z,5
2022-11-13T20:47:23.514Z,4
2022-11-13T20:48:23.514Z,4
2022-11-13T20:49:23.952Z,4
2022-11-13T20:50:24.128Z,4
2022-11-13T20:51:23.830Z,4
2022-11-13T20:52:23.685Z,4
2022-11-13T20:53:24.020Z,4
2022-11-13T20:54:24.174Z,4
2022-11-13T20:55:23.538Z,4
2022-11-13T20:56:24.049Z,4
2022-11-13T20:57:24.441Z,4
2022-11-13T20:58:23.600Z,4
2022-11-13T20:59:23.947Z,4
2022-11-13T21:00:23.382Z,4
2022-11-13T21:01:23.888Z,4
2022-11-13T21:02:23.886Z,4
2022-11-13T21:03:23.521Z,6
2022-11-13T21:04:23.207Z,6
2022-11-13T21:05:23.700Z,6
2022-11-13T21:06:24.069Z,6
2022-11-13T21:07:24.717Z,6
2022-11-13T21:08:23.849Z,6
2022-11-13T21:09:23.565Z,6
2022-11-13T21:10:23.864Z,6
2022-11-13T21:11:24.223Z,6
2022-11-13T21:12:24.271Z,6
2022-11-13T21:13:23.770Z,6
2022-11-13T21:14:23.932Z,6
2022-11-13T21:15:23.582Z,6
2022-11-13T21:16:23.608Z,6
2022-11-13T21:17:24.008Z,3
2022-11-13T21:18:23.385Z,3
2022-11-13T21:19:23.512Z,3
2022-11-13T21:20:23.804Z,3
2022-11-13T21:21:24.401Z,3
2022-11-13T21:22:23.659Z,3
2022-11-13T21:23:24.204Z,3
2022-11-13T21:24:24.393Z,3
2022-11-13T21:25:23.640Z,3
2022-11-13T21:26:23.621Z,3
2022-11-13T21:27:23.932Z,3
2022-11-13T21:28:36.912Z,3
2022-11-13T21:29:23.522Z,3
2022-11-13T21:30:22.818Z,3
2022-11-13T21:32:24.228Z,4
2022-11-13T21:33:24.110Z,4
2022-11-13T21:34:24.445Z,4
2022-11-13T21:36:24.129Z,4
2022-11-13T21:37:24.271Z,4
2022-11-13T21:38:23.677Z,4
2022-11-13T21:39:23.729Z,4
2022-11-13T21:40:23.219Z,4
2022-11-13T21:41:23.503Z,4
2022-11-13T21:42:23.961Z,4
2022-11-13T21:43:24.382Z,4
2022-11-13T21:44:23.859Z,4
2022-11-13T21:45:23.973Z,4
2022-11-13T21:46:23.629Z,4
2022-11-13T21:47:23.869Z,1
2022-11-13T21:48:25.522Z,1
2022-11-13T21:49:23.543Z,1
2022-11-13T21:50:23.980Z,1
2022-11-13T21:51:23.406Z,1
2022-11-13T21:52:23.744Z,1
2022-11-13T21:53:24.131Z,1
2022-11-13T21:54:23.567Z,1
2022-11-13T21:55:24.182Z,1
2022-11-13T21:58:24.219Z,1
2022-11-13T21:59:23.975Z,1
2022-11-13T22:00:24.050Z,1
2022-11-13T22:01:23.958Z,1
2022-11-13T22:02:24.669Z,5
2022-11-13T22:03:23.697Z,5
2022-11-13T22:04:23.382Z,5
2022-11-13T22:05:23.877Z,5
2022-11-13T22:06:24.319Z,5
2022-11-13T22:07:24.104Z,5
2022-11-13T22:08:23.976Z,5
2022-11-13T22:09:24.479Z,5
2022-11-13T22:10:23.720Z,5
2022-11-13T22:11:24.315Z,5
2022-11-13T22:12:23.649Z,5
2022-11-13T22:13:23.870Z,5
2022-11-13T22:14:23.996Z,5
2022-11-13T22:15:23.319Z,5
2022-11-13T22:16:24.550Z,5
2022-11-13T22:17:23.733Z,1
2022-11-13T22:18:24.154Z,1
2022-11-13T22:19:36.321Z,1
2022-11-13T22:20:24.536Z,1
2022-11-13T22:22:23.072Z,1
2022-11-13T22:23:24.409Z,1
2022-11-13T22:24:23.658Z,1
2022-11-13T22:25:23.742Z,1
2022-11-13T22:26:23.332Z,1
2022-11-13T22:27:24.130Z,1
2022-11-13T22:29:24.080Z,1
2022-11-13T22:30:23.517Z,1
2022-11-13T22:31:23.434Z,1
2022-11-13T22:32:24.065Z,3
2022-11-13T22:33:24.712Z,3
2022-11-13T22:34:23.663Z,3
2022-11-13T22:35:23.900Z,3
2022-11-13T22:36:24.262Z,3
2022-11-13T22:37:23.901Z,3
2022-11-13T22:38:24.204Z,3
2022-11-13T22:39:23.660Z,3
2022-11-13T22:40:23.856Z,3
2022-11-13T22:42:23.552Z,3
2022-11-13T22:43:24.087Z,3
2022-11-13T22:44:26.157Z,3
2022-11-13T22:45:36.368Z,3
2022-11-13T22:46:23.363Z,3
2022-11-13T22:47:23.624Z,0
2022-11-13T22:48:24.301Z,0
2022-11-13T22:49:23.497Z,0
2022-11-13T22:50:23.850Z,0
2022-11-13T22:51:24.135Z,0
2022-11-13T22:52:23.592Z,0
2022-11-13T22:53:24.124Z,0
2022-11-13T22:54:24.354Z,0
2022-11-13T22:55:23.526Z,0
2022-11-13T22:56:23.735Z,0
2022-11-13T22:57:23.866Z,0
2022-11-13T22:58:23.801Z,0
2022-11-13T22:59:24.424Z,0
2022-11-13T23:00:23.438Z,0
2022-11-13T23:01:23.401Z,0
2022-11-13T23:02:23.934Z,0
2022-11-13T23:03:24.431Z,0
2022-11-13T23:04:24.462Z,0
2022-11-13T23:05:23.897Z,0
2022-11-13T23:06:24.057Z,0
2022-11-13T23:07:24.011Z,0
2022-11-13T23:08:23.671Z,0
2022-11-13T23:09:23.554Z,0
2022-11-13T23:10:24.104Z,0
2022-11-13T23:11:23.468Z,0
2022-11-13T23:12:23.328Z,0
2022-11-13T23:13:23.832Z,0
2022-11-13T23:14:24.262Z,0
2022-11-13T23:15:23.661Z,0
2022-11-13T23:16:24.104Z,0
2022-11-13T23:17:23.474Z,1
2022-11-13T23:19:23.872Z,1
2022-11-13T23:20:23.666Z,1
2022-11-13T23:21:23.865Z,1
2022-11-13T23:22:24.130Z,1
2022-11-13T23:23:23.472Z,1
2022-11-13T23:24:23.542Z,1
2022-11-13T23:25:24.351Z,1
2022-11-13T23:26:23.773Z,1
2022-11-13T23:27:24.068Z,1
2022-11-13T23:28:23.782Z,1
2022-11-13T23:29:24.223Z,1
2022-11-13T23:30:24.100Z,1
2022-11-13T23:31:23.580Z,1
2022-11-13T23:32:23.777Z,1
2022-11-13T23:33:24.106Z,1
2022-11-13T23:35:02.861Z,1
2022-11-13T23:35:23.848Z,1